Time;durP1;ratioP1;P1;durP2;ratioP2;P2;SDS_P1;SDS_P2;PMS_P1;PMS_P2;Temp;Humidity;BMP_temperature;BMP_pressure;BME280_temperature;BME280_humidity;BME280_pressure;Samples;Min_cycle;Max_cycle;Signal;HPM_P1;HPM_P2
2023/05/10 00:01:42;;;;;;;0.00;0.00;;;;;;;;;;4987899;28;20432;-57
2023/05/10 00:04:09;;;;;;;0.00;0.00;;;;;;;;;;4989195;28;20252;-58
2023/05/10 00:06:36;;;;;;;0.03;0.03;;;;;;;;;;4989157;28;20209;-58
2023/05/10 00:09:03;;;;;;;0.10;0.10;;;;;;;;;;4988970;28;20261;-58
2023/05/10 00:11:30;;;;;;;0.20;0.13;;;;;;;;;;4989296;28;20263;-58
2023/05/10 00:13:59;;;;;;;0.00;0.00;;;;;;;;;;4989519;28;20252;-58
2023/05/10 00:16:26;;;;;;;0.00;0.00;;;;;;;;;;4988959;28;20237;-57
2023/05/10 00:18:53;;;;;;;0.10;0.10;;;;;;;;;;4989141;28;20206;-58
2023/05/10 00:21:20;;;;;;;0.10;0.10;;;;;;;;;;4987943;28;20217;-58
2023/05/10 00:23:47;;;;;;;2.63;0.20;;;;;;;;;;4988726;28;20209;-57
2023/05/10 00:26:14;;;;;;;0.00;0.00;;;;;;;;;;4989364;28;20210;-57
2023/05/10 00:28:41;;;;;;;0.08;0.08;;;;;;;;;;4987967;28;20221;-57
2023/05/10 00:31:10;;;;;;;0.10;0.10;;;;;;;;;;4988649;28;20936;-58
2023/05/10 00:33:37;;;;;;;0.10;0.10;;;;;;;;;;4988799;28;20280;-57
2023/05/10 00:36:07;;;;;;;0.15;0.15;;;;;;;;;;4988661;28;20656;-58
2023/05/10 00:38:34;;;;;;;0.10;0.10;;;;;;;;;;4988528;28;20260;-57
2023/05/10 00:41:01;;;;;;;0.10;0.10;;;;;;;;;;4989006;28;20935;-58
2023/05/10 00:43:28;;;;;;;0.28;0.28;;;;;;;;;;4985891;28;20225;-58
2023/05/10 00:45:56;;;;;;;0.15;0.15;;;;;;;;;;4987447;28;20241;-57
2023/05/10 00:48:24;;;;;;;0.10;0.10;;;;;;;;;;4989138;28;20224;-57
2023/05/10 00:50:51;;;;;;;0.10;0.10;;;;;;;;;;4973929;28;20699;-58
2023/05/10 00:53:19;;;;;;;0.20;0.20;;;;;;;;;;4988667;28;20275;-57
2023/05/10 00:55:46;;;;;;;0.10;0.10;;;;;;;;;;4989079;28;20234;-57
2023/05/10 00:58:13;;;;;;;0.10;0.10;;;;;;;;;;4988349;28;20224;-58
2023/05/10 01:00:43;;;;;;;2.08;0.20;;;;;;;;;;4984808;28;20562;-57
2023/05/10 01:03:11;;;;;;;0.10;0.10;;;;;;;;;;4984910;28;20214;-58
2023/05/10 01:05:39;;;;;;;0.10;0.10;;;;;;;;;;4988802;28;20268;-58
2023/05/10 01:08:08;;;;;;;0.10;0.10;;;;;;;;;;4986844;28;20206;-58
2023/05/10 01:10:35;;;;;;;0.00;0.00;;;;;;;;;;4984460;28;20699;-57
2023/05/10 01:13:02;;;;;;;0.10;0.10;;;;;;;;;;4986521;28;20203;-57
2023/05/10 01:15:30;;;;;;;0.20;0.20;;;;;;;;;;4988946;28;20320;-58
2023/05/10 01:17:57;;;;;;;0.10;0.10;;;;;;;;;;4988150;28;20217;-58
2023/05/10 01:20:24;;;;;;;0.47;0.15;;;;;;;;;;4988728;28;20571;-58
2023/05/10 01:23:05;;;;;;;0.10;0.10;;;;;;;;;;4988320;28;20206;-57
2023/05/10 01:25:37;;;;;;;0.15;0.15;;;;;;;;;;4984511;28;20213;-58
2023/05/10 01:28:13;;;;;;;0.10;0.10;;;;;;;;;;4986345;28;20264;-58
2023/05/10 01:30:58;;;;;;;0.00;0.00;;;;;;;;;;4988354;28;20276;-58
2023/05/10 01:33:28;;;;;;;0.45;0.10;;;;;;;;;;4986687;28;20209;-58
2023/05/10 01:36:00;;;;;;;0.15;0.15;;;;;;;;;;4988443;28;20324;-57
2023/05/10 01:38:30;;;;;;;4.18;0.20;;;;;;;;;;4986714;28;20260;-58
2023/05/10 01:41:03;;;;;;;0.10;0.10;;;;;;;;;;4984116;28;20202;-58
2023/05/10 01:43:34;;;;;;;0.10;0.10;;;;;;;;;;4984064;28;20241;-57
2023/05/10 01:46:10;;;;;;;0.08;0.08;;;;;;;;;;4985395;28;20233;-57
2023/05/10 01:48:38;;;;;;;0.10;0.10;;;;;;;;;;4987766;28;20209;-57
2023/05/10 01:51:06;;;;;;;0.10;0.10;;;;;;;;;;4986022;28;20323;-57
2023/05/10 01:53:35;;;;;;;0.10;0.10;;;;;;;;;;4985780;28;20236;-58
2023/05/10 01:56:03;;;;;;;0.10;0.10;;;;;;;;;;4980561;28;20230;-57
2023/05/10 01:58:32;;;;;;;0.10;0.10;;;;;;;;;;4987744;28;20271;-57
2023/05/10 02:01:00;;;;;;;0.13;0.13;;;;;;;;;;4987505;28;20213;-58
2023/05/10 02:03:28;;;;;;;0.10;0.10;;;;;;;;;;4985928;28;20288;-57
2023/05/10 02:05:57;;;;;;;0.10;0.10;;;;;;;;;;4985889;28;20206;-57
2023/05/10 02:08:25;;;;;;;0.10;0.10;;;;;;;;;;4987483;28;20268;-58
2023/05/10 02:10:53;;;;;;;0.10;0.10;;;;;;;;;;4987220;28;20903;-57
2023/05/10 02:13:20;;;;;;;0.40;0.10;;;;;;;;;;4987424;28;20210;-58
2023/05/10 02:15:49;;;;;;;0.10;0.10;;;;;;;;;;4987264;28;20233;-57
2023/05/10 02:18:17;;;;;;;0.10;0.10;;;;;;;;;;4987076;28;20214;-57
2023/05/10 02:20:45;;;;;;;0.17;0.17;;;;;;;;;;4987330;28;20303;-57
2023/05/10 02:23:14;;;;;;;0.20;0.20;;;;;;;;;;4987621;28;20202;-57
2023/05/10 02:25:41;;;;;;;0.13;0.13;;;;;;;;;;4986761;28;20213;-57
2023/05/10 02:28:08;;;;;;;0.10;0.10;;;;;;;;;;4985407;28;20627;-57
2023/05/10 02:30:36;;;;;;;1.55;0.10;;;;;;;;;;4987670;28;20217;-57
2023/05/10 02:33:03;;;;;;;0.10;0.10;;;;;;;;;;4986929;28;20225;-57
2023/05/10 02:35:33;;;;;;;0.05;0.05;;;;;;;;;;4987014;28;20312;-58
2023/05/10 02:38:00;;;;;;;0.17;0.17;;;;;;;;;;4987119;28;20267;-57
2023/05/10 02:40:29;;;;;;;0.10;0.10;;;;;;;;;;4986324;28;20257;-57
2023/05/10 02:42:56;;;;;;;5.05;0.10;;;;;;;;;;4986456;28;20802;-57
2023/05/10 02:45:26;;;;;;;0.10;0.10;;;;;;;;;;4986467;28;20266;-60
2023/05/10 02:47:53;;;;;;;0.10;0.10;;;;;;;;;;4992347;28;20257;-57
2023/05/10 02:50:20;;;;;;;0.20;0.20;;;;;;;;;;4985079;28;20222;-58
2023/05/10 02:52:48;;;;;;;3.33;0.17;;;;;;;;;;4985666;28;20213;-58
2023/05/10 02:55:16;;;;;;;0.10;0.10;;;;;;;;;;4985940;28;20324;-57
2023/05/10 02:57:48;;;;;;;0.25;0.15;;;;;;;;;;4986684;28;20228;-57
2023/05/10 03:00:15;;;;;;;0.10;0.10;;;;;;;;;;4986260;28;20209;-57
2023/05/10 03:02:42;;;;;;;2.38;0.20;;;;;;;;;;4986642;28;20210;-58
2023/05/10 03:05:09;;;;;;;0.47;0.20;;;;;;;;;;4984203;28;20206;-57
2023/05/10 03:07:37;;;;;;;0.15;0.15;;;;;;;;;;4986225;28;20230;-57
2023/05/10 03:10:05;;;;;;;0.25;0.25;;;;;;;;;;4986500;28;20288;-57
2023/05/10 03:12:35;;;;;;;0.10;0.10;;;;;;;;;;4986745;28;20220;-57
2023/05/10 03:15:09;;;;;;;0.10;0.10;;;;;;;;;;4986863;28;20208;-57
2023/05/10 03:17:41;;;;;;;0.70;0.20;;;;;;;;;;4986535;28;20210;-57
2023/05/10 03:20:11;;;;;;;0.10;0.10;;;;;;;;;;4986813;28;20245;-57
2023/05/10 03:22:39;;;;;;;0.20;0.20;;;;;;;;;;4986400;28;20221;-57
2023/05/10 03:25:08;;;;;;;0.20;0.20;;;;;;;;;;4985767;28;20316;-57
2023/05/10 03:27:35;;;;;;;0.10;0.10;;;;;;;;;;4985273;28;20260;-57
2023/05/10 03:30:04;;;;;;;0.20;0.20;;;;;;;;;;4987002;28;20209;-57
2023/05/10 03:32:34;;;;;;;0.10;0.10;;;;;;;;;;4986529;28;20264;-58
2023/05/10 03:35:02;;;;;;;0.20;0.20;;;;;;;;;;4986264;28;20325;-58
2023/05/10 03:37:29;;;;;;;0.20;0.20;;;;;;;;;;4986143;28;20316;-57
2023/05/10 03:39:56;;;;;;;0.10;0.10;;;;;;;;;;4986392;28;20237;-57
2023/05/10 03:42:23;;;;;;;0.70;0.20;;;;;;;;;;4985995;28;20213;-58
2023/05/10 03:44:50;;;;;;;0.20;0.20;;;;;;;;;;4984475;28;20742;-57
2023/05/10 03:47:18;;;;;;;0.17;0.17;;;;;;;;;;4985640;28;20212;-57
2023/05/10 03:49:45;;;;;;;0.20;0.20;;;;;;;;;;4986129;28;20268;-57
2023/05/10 03:52:12;;;;;;;0.20;0.20;;;;;;;;;;4986473;28;20237;-58
2023/05/10 03:54:39;;;;;;;0.20;0.20;;;;;;;;;;4985891;28;20300;-57
2023/05/10 03:57:06;;;;;;;0.10;0.10;;;;;;;;;;4985421;28;20222;-57
2023/05/10 03:59:33;;;;;;;0.10;0.10;;;;;;;;;;4985816;28;20267;-57
2023/05/10 04:02:00;;;;;;;0.22;0.22;;;;;;;;;;4985475;28;20225;-57
2023/05/10 04:04:29;;;;;;;0.82;0.28;;;;;;;;;;4987446;28;20217;-57
2023/05/10 04:06:56;;;;;;;0.20;0.20;;;;;;;;;;4988870;28;20202;-57
2023/05/10 04:09:23;;;;;;;0.20;0.20;;;;;;;;;;4988861;28;20271;-57
2023/05/10 04:11:50;;;;;;;0.25;0.25;;;;;;;;;;4988637;28;20659;-57
2023/05/10 04:14:17;;;;;;;0.20;0.20;;;;;;;;;;4989247;28;20245;-57
2023/05/10 04:16:44;;;;;;;0.20;0.20;;;;;;;;;;4984820;28;20226;-57
2023/05/10 04:19:11;;;;;;;0.40;0.40;;;;;;;;;;4988865;28;20271;-57
2023/05/10 04:21:40;;;;;;;1.08;0.43;;;;;;;;;;4988865;28;20208;-58
2023/05/10 04:24:07;;;;;;;0.30;0.30;;;;;;;;;;4988609;28;20202;-58
2023/05/10 04:26:34;;;;;;;0.20;0.20;;;;;;;;;;4988636;28;20206;-58
2023/05/10 04:29:01;;;;;;;0.20;0.20;;;;;;;;;;4988683;28;20248;-56
2023/05/10 04:31:28;;;;;;;1.17;0.20;;;;;;;;;;4988212;28;20274;-57
2023/05/10 04:33:55;;;;;;;0.30;0.30;;;;;;;;;;4988349;28;20210;-57
2023/05/10 04:36:22;;;;;;;2.40;0.30;;;;;;;;;;4988303;28;20234;-57
2023/05/10 04:38:50;;;;;;;3.25;0.20;;;;;;;;;;4988054;28;20727;-58
2023/05/10 04:41:17;;;;;;;0.43;0.43;;;;;;;;;;4988505;28;20210;-58
2023/05/10 04:43:44;;;;;;;0.38;0.38;;;;;;;;;;4988242;28;20229;-57
2023/05/10 04:46:11;;;;;;;0.22;0.22;;;;;;;;;;4987868;28;20751;-57
2023/05/10 04:48:38;;;;;;;0.40;0.40;;;;;;;;;;4988588;28;20205;-58
2023/05/10 04:51:06;;;;;;;0.38;0.38;;;;;;;;;;4988374;28;20210;-57
2023/05/10 04:53:33;;;;;;;0.52;0.40;;;;;;;;;;4983152;28;20245;-57
2023/05/10 04:56:01;;;;;;;0.35;0.35;;;;;;;;;;4988743;28;20230;-57
2023/05/10 04:58:28;;;;;;;1.88;0.40;;;;;;;;;;4988263;28;20233;-58
2023/05/10 05:00:55;;;;;;;0.40;0.40;;;;;;;;;;4986907;28;20264;-57
2023/05/10 05:03:22;;;;;;;0.40;0.40;;;;;;;;;;4988363;28;20217;-58
2023/05/10 05:05:49;;;;;;;0.95;0.40;;;;;;;;;;4988338;28;20202;-57
2023/05/10 05:08:16;;;;;;;0.60;0.60;;;;;;;;;;4987465;28;20210;-58
2023/05/10 05:10:43;;;;;;;1.20;0.70;;;;;;;;;;4987133;28;20202;-57
2023/05/10 05:13:13;;;;;;;0.45;0.45;;;;;;;;;;4987795;28;20202;-57
2023/05/10 05:15:40;;;;;;;0.52;0.52;;;;;;;;;;4986901;28;20210;-58
2023/05/10 05:18:07;;;;;;;1.55;0.45;;;;;;;;;;4987967;28;20204;-58
2023/05/10 05:20:34;;;;;;;0.40;0.40;;;;;;;;;;4987995;28;20672;-57
2023/05/10 05:23:02;;;;;;;0.50;0.50;;;;;;;;;;4984159;28;20202;-58
2023/05/10 05:25:29;;;;;;;0.60;0.60;;;;;;;;;;4984222;28;20205;-58
2023/05/10 05:27:56;;;;;;;0.50;0.50;;;;;;;;;;4984555;28;20206;-58
2023/05/10 05:30:24;;;;;;;0.70;0.70;;;;;;;;;;4984756;28;20265;-58
2023/05/10 05:32:51;;;;;;;0.88;0.60;;;;;;;;;;4986472;28;20400;-58
2023/05/10 05:35:18;;;;;;;0.70;0.70;;;;;;;;;;4987159;28;20210;-58
2023/05/10 05:37:45;;;;;;;3.00;0.80;;;;;;;;;;4986735;28;20225;-58
2023/05/10 05:40:15;;;;;;;0.90;0.90;;;;;;;;;;4987617;28;20210;-57
2023/05/10 05:42:42;;;;;;;0.45;0.45;;;;;;;;;;4986477;28;20209;-58
2023/05/10 05:45:12;;;;;;;0.73;0.73;;;;;;;;;;4984708;28;20260;-58
2023/05/10 05:47:41;;;;;;;0.52;0.52;;;;;;;;;;4987636;28;20412;-58
2023/05/10 05:50:08;;;;;;;1.85;1.10;;;;;;;;;;4983126;28;20268;-61
2023/05/10 05:52:35;;;;;;;0.85;0.47;;;;;;;;;;4983441;28;20206;-60
2023/05/10 05:55:02;;;;;;;1.35;0.80;;;;;;;;;;4985460;28;20209;-59
2023/05/10 05:57:30;;;;;;;0.70;0.70;;;;;;;;;;4987814;28;20833;-59
2023/05/10 05:59:57;;;;;;;2.15;0.70;;;;;;;;;;4987494;28;20209;-59
2023/05/10 06:02:24;;;;;;;0.70;0.70;;;;;;;;;;4987693;28;20206;-59
2023/05/10 06:04:53;;;;;;;1.00;1.00;;;;;;;;;;4988321;28;20201;-60
2023/05/10 06:07:20;;;;;;;3.22;0.40;;;;;;;;;;4988068;28;20256;-60
2023/05/10 06:09:47;;;;;;;0.60;0.60;;;;;;;;;;4987917;28;20202;-59
2023/05/10 06:12:14;;;;;;;0.63;0.57;;;;;;;;;;4987438;28;20205;-60
2023/05/10 06:14:41;;;;;;;0.73;0.73;;;;;;;;;;4987981;28;20221;-59
2023/05/10 06:17:08;;;;;;;0.65;0.45;;;;;;;;;;4987570;28;20233;-58
2023/05/10 06:19:36;;;;;;;0.77;0.77;;;;;;;;;;4987678;28;20206;-62
2023/05/10 06:22:05;;;;;;;50.90;5.90;;;;;;;;;;4987778;28;20209;-58
2023/05/10 06:24:32;;;;;;;4.47;1.30;;;;;;;;;;4988142;28;20656;-58
2023/05/10 06:26:59;;;;;;;0.55;0.55;;;;;;;;;;4987212;28;20212;-58
2023/05/10 06:29:27;;;;;;;1.48;0.90;;;;;;;;;;4986161;28;20288;-58
2023/05/10 06:31:54;;;;;;;1.75;0.70;;;;;;;;;;4987428;28;20213;-58
2023/05/10 06:34:21;;;;;;;0.63;0.57;;;;;;;;;;4987381;28;20304;-58
2023/05/10 06:36:48;;;;;;;0.68;0.65;;;;;;;;;;4987608;28;20288;-58
2023/05/10 06:39:16;;;;;;;0.55;0.55;;;;;;;;;;4982509;28;20213;-58
2023/05/10 06:41:43;;;;;;;0.73;0.73;;;;;;;;;;4983931;28;20214;-58
2023/05/10 06:44:10;;;;;;;2.72;0.82;;;;;;;;;;4982966;28;20240;-58
2023/05/10 06:46:37;;;;;;;0.50;0.50;;;;;;;;;;4986679;28;20234;-58
2023/05/10 06:49:05;;;;;;;0.50;0.50;;;;;;;;;;4986512;28;20260;-58
2023/05/10 06:51:32;;;;;;;0.65;0.65;;;;;;;;;;4986169;28;20296;-58
2023/05/10 06:53:59;;;;;;;6.35;0.90;;;;;;;;;;4986811;28;20311;-58
2023/05/10 06:56:28;;;;;;;2.50;0.80;;;;;;;;;;4985232;28;20237;-57
2023/05/10 06:58:55;;;;;;;0.88;0.85;;;;;;;;;;4983946;28;20296;-57
2023/05/10 07:01:22;;;;;;;0.70;0.70;;;;;;;;;;4987104;28;20214;-57
2023/05/10 07:03:50;;;;;;;1.10;0.90;;;;;;;;;;4974022;28;20201;-59
2023/05/10 07:06:17;;;;;;;3.08;0.82;;;;;;;;;;4986811;28;20221;-58
2023/05/10 07:08:44;;;;;;;8.30;0.80;;;;;;;;;;4986995;28;20225;-57
2023/05/10 07:11:11;;;;;;;1.75;0.70;;;;;;;;;;4987249;28;20574;-57
2023/05/10 07:13:43;;;;;;;0.88;0.45;;;;;;;;;;4986889;28;20582;-56
2023/05/10 07:16:11;;;;;;;1.63;0.88;;;;;;;;;;4987510;28;20218;-57
2023/05/10 07:18:38;;;;;;;0.70;0.70;;;;;;;;;;4985313;28;20225;-57
2023/05/10 07:21:05;;;;;;;0.65;0.65;;;;;;;;;;4986934;28;20268;-57
2023/05/10 07:23:32;;;;;;;0.77;0.75;;;;;;;;;;4987141;28;20206;-58
2023/05/10 07:25:59;;;;;;;2.63;1.10;;;;;;;;;;4984160;28;20570;-57
2023/05/10 07:28:26;;;;;;;5.53;1.00;;;;;;;;;;4985488;28;20237;-57
2023/05/10 07:30:54;;;;;;;0.82;0.70;;;;;;;;;;4985307;28;20256;-57
2023/05/10 07:33:21;;;;;;;1.15;0.80;;;;;;;;;;4986354;28;20232;-57
2023/05/10 07:36:02;;;;;;;0.93;0.93;;;;;;;;;;4984959;28;20610;-58
2023/05/10 07:38:29;;;;;;;0.70;0.68;;;;;;;;;;4987947;28;20283;-57
2023/05/10 07:40:56;;;;;;;0.80;0.80;;;;;;;;;;4990411;28;20228;-57
2023/05/10 07:43:23;;;;;;;1.00;1.00;;;;;;;;;;4989751;28;20227;-58
2023/05/10 07:45:51;;;;;;;0.80;0.80;;;;;;;;;;5001080;28;20259;-57
2023/05/10 07:48:19;;;;;;;0.80;0.80;;;;;;;;;;5010043;28;20279;-57
2023/05/10 07:50:46;;;;;;;0.70;0.70;;;;;;;;;;5009737;28;20609;-57
2023/05/10 07:53:13;;;;;;;0.90;0.90;;;;;;;;;;5009922;28;20205;-57
2023/05/10 07:55:40;;;;;;;2.78;0.90;;;;;;;;;;5009855;28;20217;-57
2023/05/10 07:58:07;;;;;;;1.55;0.73;;;;;;;;;;5009099;28;20718;-57
2023/05/10 08:00:35;;;;;;;1.63;1.10;;;;;;;;;;5009048;28;20299;-58
2023/05/10 08:03:02;;;;;;;0.70;0.70;;;;;;;;;;5009329;28;20213;-57
2023/05/10 08:05:30;;;;;;;0.70;0.70;;;;;;;;;;5008494;28;20278;-57
2023/05/10 08:07:59;;;;;;;0.88;0.88;;;;;;;;;;5009510;28;20213;-59
2023/05/10 08:10:26;;;;;;;1.10;0.90;;;;;;;;;;5009222;28;20260;-59
2023/05/10 08:12:53;;;;;;;1.35;0.88;;;;;;;;;;5008452;28;20548;-58
2023/05/10 08:15:20;;;;;;;4.57;1.00;;;;;;;;;;5006996;28;20212;-58
2023/05/10 08:17:47;;;;;;;0.57;0.57;;;;;;;;;;5008955;28;20244;-56
2023/05/10 08:20:16;;;;;;;0.80;0.80;;;;;;;;;;5008739;28;20224;-56
2023/05/10 08:22:44;;;;;;;1.55;0.80;;;;;;;;;;5007964;28;20205;-56
2023/05/10 08:25:11;;;;;;;1.75;0.75;;;;;;;;;;5006995;28;20213;-56
2023/05/10 08:27:38;;;;;;;2.08;1.08;;;;;;;;;;5008489;28;20204;-57
2023/05/10 08:30:06;;;;;;;2.05;0.80;;;;;;;;;;5007475;28;20929;-61
2023/05/10 08:32:34;;;;;;;1.27;0.68;;;;;;;;;;5008770;28;20209;-58
2023/05/10 08:35:01;;;;;;;1.45;1.10;;;;;;;;;;5008421;28;20354;-58
2023/05/10 08:37:32;;;;;;;1.00;1.00;;;;;;;;;;5007658;28;20323;-58
2023/05/10 08:40:00;;;;;;;1.75;1.67;;;;;;;;;;5008041;28;20213;-56
2023/05/10 08:42:30;;;;;;;1.60;1.20;;;;;;;;;;5008659;28;20553;-58
2023/05/10 08:44:58;;;;;;;1.35;1.10;;;;;;;;;;5005025;28;20328;-58
2023/05/10 08:47:26;;;;;;;1.23;1.23;;;;;;;;;;4988712;28;20267;-57
2023/05/10 08:49:53;;;;;;;1.75;1.40;;;;;;;;;;4987596;28;20205;-61
2023/05/10 08:52:21;;;;;;;3.03;1.52;;;;;;;;;;4988425;28;20221;-58
2023/05/10 08:54:48;;;;;;;6.00;1.50;;;;;;;;;;4990937;28;20271;-58
2023/05/10 08:57:17;;;;;;;2.33;0.68;;;;;;;;;;4986374;28;20692;-57
2023/05/10 08:59:44;;;;;;;0.68;0.63;;;;;;;;;;4984208;28;20214;-58
2023/05/10 09:02:11;;;;;;;1.23;0.90;;;;;;;;;;4981257;28;20826;-58
2023/05/10 09:04:38;;;;;;;1.65;0.60;;;;;;;;;;4983591;28;20361;-58
2023/05/10 09:07:05;;;;;;;0.80;0.80;;;;;;;;;;4984934;28;20236;-58
2023/05/10 09:09:33;;;;;;;0.60;0.60;;;;;;;;;;4983433;28;20217;-58
2023/05/10 09:12:00;;;;;;;1.10;0.98;;;;;;;;;;4986259;28;20210;-58
2023/05/10 09:14:28;;;;;;;2.88;0.75;;;;;;;;;;4986848;28;20224;-58
2023/05/10 09:16:55;;;;;;;0.90;0.90;;;;;;;;;;4985988;28;20268;-58
2023/05/10 09:19:22;;;;;;;1.75;0.60;;;;;;;;;;4987940;28;20571;-58
2023/05/10 09:21:50;;;;;;;0.80;0.55;;;;;;;;;;4987332;28;20198;-58
2023/05/10 09:24:17;;;;;;;4.82;3.10;;;;;;;;;;4988420;28;20213;-59
2023/05/10 09:26:48;;;;;;;1.38;0.68;;;;;;;;;;4987570;28;20210;-58
2023/05/10 09:29:15;;;;;;;0.63;0.63;;;;;;;;;;4986567;28;20213;-58
2023/05/10 09:31:47;;;;;;;1.88;0.50;;;;;;;;;;4987785;28;20210;-58
2023/05/10 09:34:18;;;;;;;0.60;0.60;;;;;;;;;;4987571;28;20318;-58
2023/05/10 09:36:55;;;;;;;0.50;0.50;;;;;;;;;;4987570;28;20589;-58
2023/05/10 09:39:22;;;;;;;0.93;0.63;;;;;;;;;;4987043;28;20226;-58
2023/05/10 09:41:49;;;;;;;0.50;0.50;;;;;;;;;;4987583;28;20292;-58
2023/05/10 09:44:19;;;;;;;0.40;0.35;;;;;;;;;;4987077;28;20352;-58
2023/05/10 09:46:52;;;;;;;1.83;0.60;;;;;;;;;;5004896;28;20268;-58
2023/05/10 09:49:19;;;;;;;3.30;0.50;;;;;;;;;;5000521;28;20678;-59
2023/05/10 09:51:46;;;;;;;2.08;0.70;;;;;;;;;;5006318;28;20216;-58
2023/05/10 09:54:14;;;;;;;0.40;0.40;;;;;;;;;;5006115;28;20275;-58
2023/05/10 09:56:42;;;;;;;3.20;2.00;;;;;;;;;;5006199;28;20213;-58
2023/05/10 09:59:09;;;;;;;29.88;5.93;;;;;;;;;;5005792;28;20947;-58
2023/05/10 10:01:36;;;;;;;16.83;4.63;;;;;;;;;;5006154;28;20208;-58
2023/05/10 10:04:05;;;;;;;1.30;1.27;;;;;;;;;;5006222;28;20208;-58
2023/05/10 10:06:37;;;;;;;67.60;15.85;;;;;;;;;;5005881;28;20209;-59
2023/05/10 10:09:04;;;;;;;22.05;7.00;;;;;;;;;;5005016;28;20228;-58
2023/05/10 10:11:31;;;;;;;57.25;17.50;;;;;;;;;;5005875;28;20213;-58
2023/05/10 10:13:58;;;;;;;2.40;1.65;;;;;;;;;;5002136;28;20263;-59
2023/05/10 10:16:26;;;;;;;1.10;0.65;;;;;;;;;;5005370;28;20208;-59
2023/05/10 10:18:53;;;;;;;2.95;1.15;;;;;;;;;;4998828;28;20283;-60
2023/05/10 10:21:21;;;;;;;4.18;1.00;;;;;;;;;;5006100;28;20216;-59
2023/05/10 10:23:48;;;;;;;0.45;0.45;;;;;;;;;;5005981;28;20227;-59
2023/05/10 10:26:17;;;;;;;5.60;1.65;;;;;;;;;;5006216;28;20215;-58
2023/05/10 10:28:49;;;;;;;5.63;0.93;;;;;;;;;;5006123;28;20208;-58
2023/05/10 10:31:19;;;;;;;1.27;1.08;;;;;;;;;;5005895;28;20341;-58
2023/05/10 10:33:56;;;;;;;1.95;0.70;;;;;;;;;;5006070;28;20315;-58
2023/05/10 10:36:26;;;;;;;4.22;1.05;;;;;;;;;;5005693;28;20244;-59
2023/05/10 10:38:59;;;;;;;0.65;0.50;;;;;;;;;;5005447;28;20314;-58
2023/05/10 10:41:30;;;;;;;1.20;1.00;;;;;;;;;;5005406;28;20434;-58
2023/05/10 10:44:16;;;;;;;2.05;0.60;;;;;;;;;;5004954;28;20725;-60
2023/05/10 10:46:57;;;;;;;2.20;1.02;;;;;;;;;;4969123;28;20404;-59
2023/05/10 10:49:24;;;;;;;1.27;0.63;;;;;;;;;;4984399;28;21104;-58
2023/05/10 10:52:10;;;;;;;0.30;0.30;;;;;;;;;;4986227;28;20205;-59
2023/05/10 10:54:38;;;;;;;0.73;0.50;;;;;;;;;;4986710;28;20217;-58
2023/05/10 10:57:12;;;;;;;0.75;0.75;;;;;;;;;;4985927;28;20216;-59
2023/05/10 10:59:43;;;;;;;1.77;0.70;;;;;;;;;;4986373;28;20256;-58
2023/05/10 11:02:10;;;;;;;0.57;0.57;;;;;;;;;;4985693;28;20681;-62
2023/05/10 11:04:46;;;;;;;0.40;0.40;;;;;;;;;;4986394;28;20224;-58
2023/05/10 11:07:20;;;;;;;0.52;0.40;;;;;;;;;;4985008;28;20232;-58
2023/05/10 11:09:48;;;;;;;0.40;0.40;;;;;;;;;;4981155;28;20210;-59
2023/05/10 11:12:15;;;;;;;0.40;0.40;;;;;;;;;;4986342;28;20299;-60
2023/05/10 11:14:43;;;;;;;0.30;0.30;;;;;;;;;;4985905;28;20228;-61
2023/05/10 11:17:26;;;;;;;1.17;0.40;;;;;;;;;;4985523;28;20565;-58
2023/05/10 11:20:09;;;;;;;0.45;0.45;;;;;;;;;;4986357;28;20232;-67
2023/05/10 11:22:50;;;;;;;0.30;0.30;;;;;;;;;;4985154;28;20245;-57
2023/05/10 11:25:19;;;;;;;1.38;0.50;;;;;;;;;;4985939;28;20312;-57
2023/05/10 11:27:46;;;;;;;0.47;0.38;;;;;;;;;;4986119;28;20272;-58
2023/05/10 11:30:14;;;;;;;0.40;0.40;;;;;;;;;;4985567;28;20578;-57
2023/05/10 11:32:41;;;;;;;2.17;0.32;;;;;;;;;;4985278;28;20280;-61
2023/05/10 11:35:09;;;;;;;0.45;0.30;;;;;;;;;;4982275;28;20213;-57
2023/05/10 11:37:36;;;;;;;3.72;0.45;;;;;;;;;;4985608;28;20619;-58
2023/05/10 11:40:03;;;;;;;0.20;0.20;;;;;;;;;;4986475;28;20256;-57
2023/05/10 11:42:31;;;;;;;0.30;0.30;;;;;;;;;;4986597;28;20861;-57
2023/05/10 11:44:58;;;;;;;0.20;0.20;;;;;;;;;;4983573;28;20229;-58
2023/05/10 11:47:25;;;;;;;0.75;0.35;;;;;;;;;;4986145;28;20210;-61
2023/05/10 11:49:53;;;;;;;0.22;0.22;;;;;;;;;;4984420;28;20645;-57
2023/05/10 11:52:20;;;;;;;0.20;0.20;;;;;;;;;;4983712;28;20210;-57
2023/05/10 11:54:52;;;;;;;0.20;0.20;;;;;;;;;;4972983;28;20210;-57
2023/05/10 11:57:20;;;;;;;0.32;0.32;;;;;;;;;;4985203;28;20237;-58
2023/05/10 11:59:48;;;;;;;1.70;0.50;;;;;;;;;;4985859;28;20241;-57
2023/05/10 12:02:15;;;;;;;0.60;0.40;;;;;;;;;;4982260;28;20268;-57
2023/05/10 12:04:42;;;;;;;3.00;0.55;;;;;;;;;;4978369;28;20225;-59
2023/05/10 12:07:10;;;;;;;0.30;0.30;;;;;;;;;;4981940;28;20214;-59
2023/05/10 12:09:37;;;;;;;0.55;0.55;;;;;;;;;;4983327;28;20348;-57
2023/05/10 12:12:04;;;;;;;1.60;0.40;;;;;;;;;;4984447;28;20232;-57
2023/05/10 12:14:35;;;;;;;0.25;0.25;;;;;;;;;;4983861;28;20265;-57
2023/05/10 12:17:03;;;;;;;0.85;0.30;;;;;;;;;;4983228;28;20687;-57
2023/05/10 12:19:38;;;;;;;1.35;0.20;;;;;;;;;;4983560;28;20233;-57
2023/05/10 12:22:06;;;;;;;0.20;0.20;;;;;;;;;;4984542;28;20291;-57
2023/05/10 12:24:35;;;;;;;0.90;0.30;;;;;;;;;;4985861;28;20272;-56
2023/05/10 12:27:07;;;;;;;0.20;0.20;;;;;;;;;;4987025;28;20260;-56
2023/05/10 12:29:35;;;;;;;0.25;0.25;;;;;;;;;;4988912;28;20304;-57
2023/05/10 12:32:03;;;;;;;0.28;0.28;;;;;;;;;;4988853;28;20216;-57
2023/05/10 12:34:32;;;;;;;0.20;0.20;;;;;;;;;;4986222;28;20728;-57
2023/05/10 12:36:59;;;;;;;0.25;0.25;;;;;;;;;;4981917;28;20293;-56
2023/05/10 12:39:26;;;;;;;0.20;0.20;;;;;;;;;;4987445;28;20296;-57
2023/05/10 12:41:56;;;;;;;0.20;0.20;;;;;;;;;;4988063;28;20573;-58
2023/05/10 12:44:23;;;;;;;0.35;0.35;;;;;;;;;;4986304;28;20778;-57
2023/05/10 12:46:50;;;;;;;0.40;0.40;;;;;;;;;;4992374;28;20240;-58
2023/05/10 12:49:19;;;;;;;0.40;0.40;;;;;;;;;;4994312;28;20615;-57
2023/05/10 12:51:46;;;;;;;0.22;0.22;;;;;;;;;;4988596;28;20217;-57
2023/05/10 12:54:13;;;;;;;0.30;0.30;;;;;;;;;;4987925;28;20209;-57
2023/05/10 12:56:40;;;;;;;1.13;0.32;;;;;;;;;;4988502;28;20206;-57
2023/05/10 12:59:07;;;;;;;0.55;0.55;;;;;;;;;;4988308;28;20328;-57
2023/05/10 13:01:34;;;;;;;1.33;0.50;;;;;;;;;;4988240;28;20214;-57
2023/05/10 13:04:01;;;;;;;0.25;0.25;;;;;;;;;;4986717;28;20276;-57
2023/05/10 13:06:30;;;;;;;0.30;0.30;;;;;;;;;;4986264;28;20300;-56
2023/05/10 13:08:58;;;;;;;0.57;0.20;;;;;;;;;;4986537;28;20245;-58
2023/05/10 13:11:25;;;;;;;0.30;0.30;;;;;;;;;;4984537;28;20664;-57
2023/05/10 13:13:52;;;;;;;0.55;0.55;;;;;;;;;;4987569;28;20217;-57
2023/05/10 13:16:19;;;;;;;1.35;0.20;;;;;;;;;;4987914;28;20209;-56
2023/05/10 13:18:46;;;;;;;0.80;0.43;;;;;;;;;;4987918;28;20297;-57
2023/05/10 13:21:14;;;;;;;0.25;0.25;;;;;;;;;;4987838;28;20212;-57
2023/05/10 13:23:42;;;;;;;0.40;0.40;;;;;;;;;;4988745;28;20369;-57
2023/05/10 13:26:09;;;;;;;0.45;0.45;;;;;;;;;;4988603;28;20518;-57
2023/05/10 13:28:38;;;;;;;0.90;0.30;;;;;;;;;;4988378;28;20260;-57
2023/05/10 13:31:05;;;;;;;0.52;0.40;;;;;;;;;;4987551;28;20574;-58
2023/05/10 13:33:32;;;;;;;0.30;0.30;;;;;;;;;;4987055;28;20202;-57
2023/05/10 13:35:59;;;;;;;0.30;0.30;;;;;;;;;;4985896;28;20272;-57
2023/05/10 13:38:26;;;;;;;1.15;0.40;;;;;;;;;;4980227;28;21272;-57
2023/05/10 13:40:55;;;;;;;0.32;0.32;;;;;;;;;;4977460;28;20218;-58
2023/05/10 13:43:22;;;;;;;13.45;1.33;;;;;;;;;;4988322;28;20238;-57
2023/05/10 13:45:49;;;;;;;6.60;0.65;;;;;;;;;;4987484;28;20244;-58
2023/05/10 13:48:16;;;;;;;3.72;0.50;;;;;;;;;;4987644;28;20623;-57
2023/05/10 13:50:44;;;;;;;0.40;0.40;;;;;;;;;;4988026;28;20216;-61
2023/05/10 13:53:12;;;;;;;0.52;0.40;;;;;;;;;;4987962;28;20223;-58
2023/05/10 13:55:39;;;;;;;0.40;0.40;;;;;;;;;;4987355;28;20213;-58
2023/05/10 13:58:07;;;;;;;0.55;0.55;;;;;;;;;;4987703;28;20210;-58
2023/05/10 14:00:35;;;;;;;0.38;0.38;;;;;;;;;;4987499;28;20280;-58
2023/05/10 14:03:02;;;;;;;0.45;0.38;;;;;;;;;;4987450;28;20217;-57
2023/05/10 14:05:29;;;;;;;0.43;0.40;;;;;;;;;;4985801;28;20210;-58
2023/05/10 14:07:57;;;;;;;0.40;0.40;;;;;;;;;;4987186;28;20657;-58
2023/05/10 14:10:24;;;;;;;1.10;0.40;;;;;;;;;;4987397;28;20197;-58
2023/05/10 14:12:51;;;;;;;0.25;0.25;;;;;;;;;;4987611;28;20245;-58
2023/05/10 14:15:19;;;;;;;0.55;0.55;;;;;;;;;;4986538;28;20219;-58
2023/05/10 14:17:46;;;;;;;0.32;0.30;;;;;;;;;;4987134;28;20576;-67
2023/05/10 14:20:13;;;;;;;0.30;0.30;;;;;;;;;;4987506;28;20245;-58
2023/05/10 14:22:40;;;;;;;0.40;0.40;;;;;;;;;;4987228;28;20206;-58
2023/05/10 14:25:08;;;;;;;0.40;0.40;;;;;;;;;;4986429;28;20220;-58
2023/05/10 14:27:35;;;;;;;0.77;0.50;;;;;;;;;;4987410;28;20209;-58
2023/05/10 14:30:02;;;;;;;1.02;0.40;;;;;;;;;;4986992;28;20214;-58
2023/05/10 14:32:31;;;;;;;0.40;0.40;;;;;;;;;;4986745;28;20244;-59
2023/05/10 14:34:59;;;;;;;0.40;0.40;;;;;;;;;;4987334;28;20260;-58
2023/05/10 14:37:26;;;;;;;0.40;0.40;;;;;;;;;;4987282;28;20218;-59
2023/05/10 14:39:53;;;;;;;0.57;0.40;;;;;;;;;;4986613;28;20225;-58
2023/05/10 14:42:21;;;;;;;0.32;0.32;;;;;;;;;;4980518;28;20210;-58
2023/05/10 14:44:48;;;;;;;0.30;0.30;;;;;;;;;;4987638;28;20229;-58
2023/05/10 14:47:15;;;;;;;0.40;0.40;;;;;;;;;;5006663;28;20267;-58
2023/05/10 14:49:43;;;;;;;5.50;1.08;;;;;;;;;;5006098;28;20213;-58